Brak ostrzeżeń pogodowych   -   Brak ostrzeżeń pogodowych

Raporty Pogodowe z Lotnisk

 

EPKK - Krakow/Balice, Poland
Odległość od stacji: Zd 81km
Aktualizacja: 25/09/2021 05:30
Pochmurnie
Pochmurnie
 Wiatr z ZdPdZd
Wiatr: ZdPdZd 7 km/h
Temperatura: 13°C
Punkt Rosy: 10°C
Wilgotność Względna: 82%
Ciśnienie Względne: 1016 hPa
Chmury: Pochmurnie
Widoczność: 10 km
Szczegóły chmur: Pochmurnie 1158 m
2021/09/25 03:30 EPKK 250330Z 25004KT 9999 OVC038 13/10 Q1016
EPRZ - Rzeszow/Jasionka, Poland
Odległość od stacji: Ws 81km
Aktualizacja: 25/09/2021 05:30
Przeważnie pochmurno
Przeważnie pochmurno
 Wiatr z Zd
Wiatr: Zd 15 km/h
Temperatura: 12°C
Punkt Rosy: 10°C
Wilgotność Względna: 88%
Ciśnienie Względne: 1015 hPa
Chmury: Przeważnie pochmurno
Widoczność: 10 km
Szczegóły chmur: Przeważnie pochmurno 853 m
2021/09/25 03:30 EPRZ 250330Z 26008KT 9999 BKN028 12/10 Q1015
 
EPKT - Katowice/Pyrzowice, Poland
Odległość od stacji: ZdPnZd 141km
Aktualizacja: 25/09/2021 05:30
Pochmurnie
Pochmurnie
 Wiatr z PdZd
Wiatr: PdZd 13 km/h
Temperatura: 13°C
Punkt Rosy: 10°C
Wilgotność Względna: 82%
Ciśnienie Względne: 1016 hPa
Chmury: Pochmurnie
Widoczność: 10 km
Szczegóły chmur: Pochmurnie 1250 m
2021/09/25 03:30 EPKT 250330Z 23007KT 9999 OVC041 13/10 Q1016
EPWA - Warsaw/Okecie, Poland
Odległość od stacji: Pn 240km
Aktualizacja: 25/09/2021 05:30
Przeważnie pochmurno
Przeważnie pochmurno
 Wiatr z ZdPdZd
Wiatr: ZdPdZd 20 km/h
Temperatura: 14°C
Punkt Rosy: 12°C
Wilgotność Względna: 88%
Ciśnienie Względne: 1011 hPa
Chmury: Przeważnie pochmurno
Widoczność: 10 km
Szczegóły chmur: Przeważnie pochmurno 1433 m
2021/09/25 03:30 EPWA 250330Z 25011KT 9999 BKN047 14/12 Q1011 NOSIG
 
EPLL - Lodz/Lublinek, Poland
Odległość od stacji: PnPnZd 218km
Aktualizacja: 25/09/2021 05:30
Pochmurnie
Pochmurnie
 Wiatr z PdZd
Wiatr: PdZd 13 km/h
Temperatura: 14°C
Punkt Rosy: 12°C
Wilgotność Względna: 88%
Ciśnienie Względne: 1013 hPa
Chmury: Pochmurnie
Widoczność: 10 km
Szczegóły chmur: Pochmurnie 1341 m
2021/09/25 03:30 EPLL 250330Z 23007KT 190V260 9999 OVC044 14/12 Q1013
EPWR - Wroclaw/Strachowice, Poland
Odległość od stacji: ZdPnZd 311km
Aktualizacja: 25/09/2021 05:30
Bezchmurnie
Bezchmurnie
 Wiatr z ZdPdZd
Wiatr: ZdPdZd 7 km/h
Temperatura: 15°C
Punkt Rosy: 12°C
Wilgotność Względna: 82%
Ciśnienie Względne: 1015 hPa
Podsumowanie: Bezchmurnie
Widoczność: większa niż 10 km
2021/09/25 03:30 EPWR 250330Z 24004KT CAVOK 15/12 Q1015
 
EPGD - Gdansk/Rebiechowo, Poland
Odległość od stacji: PnZd 553km
Aktualizacja: 25/09/2021 05:30
Słabe opady deszczu, Przeważnie pochmurno
Słabe opady deszczu, Przeważnie pochmurno
 Wiatr z Zd
Wiatr: Zd 28 km/h
Temperatura: 15°C
Punkt Rosy: 13°C
Wilgotność Względna: 88%
Ciśnienie Względne: 1006 hPa
Podsumowanie: Słabe opady deszczu
Chmury: Przeważnie pochmurno
Widoczność: 10 km
Szczegóły chmur: Częściowe zachmurzenie 274 m
Przeważnie pochmurno 366 m
2021/09/25 03:30 EPGD 250330Z 28015KT 9999 -RA SCT009 BKN012 15/13 Q1006
EPSC - Szczecin/Goleniow, Poland
Odległość od stacji: ZdPnZd 635km
Aktualizacja: 25/09/2021 05:30
Pochmurnie
Pochmurnie
 Wiatr z Zd
Wiatr: Zd 15 km/h
Temperatura: 16°C
Punkt Rosy: 14°C
Wilgotność Względna: 88%
Ciśnienie Względne: 1011 hPa
Chmury: Pochmurnie
Widoczność: 10 km
Szczegóły chmur: Pochmurnie 427 m
2021/09/25 03:30 EPSC 250330Z 26008KT 9999 OVC014 16/14 Q1011